Аэропорт: Витязево. Анапа

ICAO: URKA

METAR:
2018/11/21 18:30
URKA 211830Z AUTO 05008MPS 9000 // ///009/// 02/02 Q1017 RMK QFE759/1012
METAR:
2018/11/21 18:33
TAF 
      AMD TAF 
      AMD URKA 211830Z 2118/2218 CNL